sensor_id;sensor_type;location;lat;lon;timestamp;pressure;altitude;pressure_sealevel;temperature;humidity
77626;BME280;66794;43.764;10.436;2023-05-16T00:02:27;100453.31;;;15.26;100.00
77626;BME280;66794;43.764;10.436;2023-05-16T00:05:13;100454.22;;;14.93;100.00
77626;BME280;66794;43.764;10.436;2023-05-16T00:07:59;100461.38;;;14.61;100.00
77626;BME280;66794;43.764;10.436;2023-05-16T00:10:44;100449.19;;;14.84;100.00
77626;BME280;66794;43.764;10.436;2023-05-16T00:13:30;100442.88;;;15.10;100.00
77626;BME280;66794;43.764;10.436;2023-05-16T00:16:16;100441.97;;;15.29;100.00
77626;BME280;66794;43.764;10.436;2023-05-16T00:19:02;100434.59;;;15.36;100.00
77626;BME280;66794;43.764;10.436;2023-05-16T00:21:48;100438.19;;;15.30;100.00
77626;BME280;66794;43.764;10.436;2023-05-16T00:24:34;100425.66;;;15.22;100.00
77626;BME280;66794;43.764;10.436;2023-05-16T00:27:20;100423.56;;;15.18;100.00
77626;BME280;66794;43.764;10.436;2023-05-16T00:30:06;100430.09;;;15.04;100.00
77626;BME280;66794;43.764;10.436;2023-05-16T00:32:53;100424.41;;;15.12;100.00
77626;BME280;66794;43.764;10.436;2023-05-16T00:35:39;100415.19;;;15.13;100.00
77626;BME280;66794;43.764;10.436;2023-05-16T00:38:24;100412.84;;;15.23;100.00
77626;BME280;66794;43.764;10.436;2023-05-16T00:41:10;100406.44;;;15.42;100.00
77626;BME280;66794;43.764;10.436;2023-05-16T00:43:56;100394.53;;;15.30;100.00
77626;BME280;66794;43.764;10.436;2023-05-16T00:46:41;100401.44;;;15.33;100.00
77626;BME280;66794;43.764;10.436;2023-05-16T00:49:27;100397.13;;;15.05;100.00
77626;BME280;66794;43.764;10.436;2023-05-16T00:52:14;100378.63;;;15.20;100.00
77626;BME280;66794;43.764;10.436;2023-05-16T00:54:59;100374.34;;;15.38;100.00
77626;BME280;66794;43.764;10.436;2023-05-16T00:57:45;100373.81;;;15.22;100.00
77626;BME280;66794;43.764;10.436;2023-05-16T01:00:31;100374.50;;;14.98;100.00
77626;BME280;66794;43.764;10.436;2023-05-16T01:03:17;100361.31;;;14.88;100.00
77626;BME280;66794;43.764;10.436;2023-05-16T01:06:03;100367.84;;;14.87;100.00
77626;BME280;66794;43.764;10.436;2023-05-16T01:08:48;100363.91;;;14.70;100.00
77626;BME280;66794;43.764;10.436;2023-05-16T01:11:50;100370.97;;;14.91;100.00
77626;BME280;66794;43.764;10.436;2023-05-16T01:14:41;100362.22;;;14.69;100.00
77626;BME280;66794;43.764;10.436;2023-05-16T01:17:35;100367.22;;;14.79;100.00
77626;BME280;66794;43.764;10.436;2023-05-16T01:20:32;100353.41;;;14.73;100.00
77626;BME280;66794;43.764;10.436;2023-05-16T01:26:26;100342.22;;;15.02;100.00
77626;BME280;66794;43.764;10.436;2023-05-16T01:29:12;100339.69;;;15.00;100.00
77626;BME280;66794;43.764;10.436;2023-05-16T01:31:58;100321.84;;;15.04;100.00
77626;BME280;66794;43.764;10.436;2023-05-16T01:34:43;100324.81;;;14.89;100.00
77626;BME280;66794;43.764;10.436;2023-05-16T01:37:32;100331.16;;;14.77;100.00
77626;BME280;66794;43.764;10.436;2023-05-16T01:43:07;100320.63;;;14.93;100.00
77626;BME280;66794;43.764;10.436;2023-05-16T01:45:56;100297.09;;;14.99;100.00
77626;BME280;66794;43.764;10.436;2023-05-16T01:49:30;100295.63;;;15.03;100.00
77626;BME280;66794;43.764;10.436;2023-05-16T01:51:55;100291.63;;;15.06;100.00
77626;BME280;66794;43.764;10.436;2023-05-16T01:54:44;100291.63;;;15.12;100.00
77626;BME280;66794;43.764;10.436;2023-05-16T01:57:30;100285.59;;;15.35;100.00
77626;BME280;66794;43.764;10.436;2023-05-16T02:00:16;100247.78;;;15.07;100.00
77626;BME280;66794;43.764;10.436;2023-05-16T02:03:01;100289.25;;;15.16;100.00
77626;BME280;66794;43.764;10.436;2023-05-16T02:05:47;100285.50;;;15.17;100.00
77626;BME280;66794;43.764;10.436;2023-05-16T02:08:33;100281.91;;;15.23;100.00
77626;BME280;66794;43.764;10.436;2023-05-16T02:11:18;100286.13;;;15.19;100.00
77626;BME280;66794;43.764;10.436;2023-05-16T02:14:04;100284.44;;;15.18;100.00
77626;BME280;66794;43.764;10.436;2023-05-16T02:16:50;100281.56;;;15.06;100.00
77626;BME280;66794;43.764;10.436;2023-05-16T02:19:35;100286.16;;;15.06;100.00
77626;BME280;66794;43.764;10.436;2023-05-16T02:22:21;100280.91;;;15.11;100.00
77626;BME280;66794;43.764;10.436;2023-05-16T02:25:07;100278.22;;;15.04;100.00
77626;BME280;66794;43.764;10.436;2023-05-16T02:27:52;100274.63;;;15.10;100.00
77626;BME280;66794;43.764;10.436;2023-05-16T02:30:38;100270.91;;;14.98;100.00
77626;BME280;66794;43.764;10.436;2023-05-16T02:33:24;100266.66;;;15.09;100.00
77626;BME280;66794;43.764;10.436;2023-05-16T02:36:11;100267.03;;;15.19;100.00
77626;BME280;66794;43.764;10.436;2023-05-16T02:38:56;100277.09;;;15.18;100.00
77626;BME280;66794;43.764;10.436;2023-05-16T02:41:42;100253.91;;;15.03;100.00
77626;BME280;66794;43.764;10.436;2023-05-16T02:44:28;100267.50;;;15.09;100.00
77626;BME280;66794;43.764;10.436;2023-05-16T02:47:13;100250.53;;;15.07;100.00
77626;BME280;66794;43.764;10.436;2023-05-16T02:49:59;100238.09;;;15.11;100.00
77626;BME280;66794;43.764;10.436;2023-05-16T02:52:45;100249.00;;;15.49;100.00
77626;BME280;66794;43.764;10.436;2023-05-16T02:55:31;100254.59;;;15.30;100.00
77626;BME280;66794;43.764;10.436;2023-05-16T02:58:17;100246.47;;;15.48;100.00
77626;BME280;66794;43.764;10.436;2023-05-16T03:01:02;100253.03;;;15.40;100.00
77626;BME280;66794;43.764;10.436;2023-05-16T03:03:48;100246.47;;;15.48;100.00
77626;BME280;66794;43.764;10.436;2023-05-16T03:06:33;100243.69;;;15.55;100.00
77626;BME280;66794;43.764;10.436;2023-05-16T03:09:19;100244.38;;;15.50;100.00
77626;BME280;66794;43.764;10.436;2023-05-16T03:12:06;100248.72;;;15.58;100.00
77626;BME280;66794;43.764;10.436;2023-05-16T03:14:51;100229.31;;;15.41;100.00
77626;BME280;66794;43.764;10.436;2023-05-16T03:17:37;100230.09;;;15.23;100.00
77626;BME280;66794;43.764;10.436;2023-05-16T03:20:23;100225.28;;;15.18;100.00
77626;BME280;66794;43.764;10.436;2023-05-16T03:23:08;100231.75;;;15.24;100.00
77626;BME280;66794;43.764;10.436;2023-05-16T03:25:54;100229.38;;;15.34;100.00
77626;BME280;66794;43.764;10.436;2023-05-16T03:28:40;100224.53;;;15.36;100.00
77626;BME280;66794;43.764;10.436;2023-05-16T03:31:26;100216.81;;;15.33;100.00
77626;BME280;66794;43.764;10.436;2023-05-16T03:34:11;100218.91;;;15.31;100.00
77626;BME280;66794;43.764;10.436;2023-05-16T03:36:57;100208.56;;;15.40;100.00
77626;BME280;66794;43.764;10.436;2023-05-16T03:39:42;100213.00;;;15.34;100.00
77626;BME280;66794;43.764;10.436;2023-05-16T03:42:28;100212.91;;;15.47;100.00
77626;BME280;66794;43.764;10.436;2023-05-16T03:45:14;100208.28;;;15.48;100.00
77626;BME280;66794;43.764;10.436;2023-05-16T03:48:00;100207.09;;;15.69;100.00
77626;BME280;66794;43.764;10.436;2023-05-16T03:50:45;100211.81;;;15.80;100.00
77626;BME280;66794;43.764;10.436;2023-05-16T03:53:32;100206.09;;;15.88;100.00
77626;BME280;66794;43.764;10.436;2023-05-16T03:56:17;100217.94;;;15.75;100.00
77626;BME280;66794;43.764;10.436;2023-05-16T03:59:03;100214.63;;;15.73;100.00
77626;BME280;66794;43.764;10.436;2023-05-16T04:01:49;100223.41;;;15.75;100.00
77626;BME280;66794;43.764;10.436;2023-05-16T04:04:34;100230.53;;;15.76;100.00
77626;BME280;66794;43.764;10.436;2023-05-16T04:07:20;100236.28;;;15.68;100.00
77626;BME280;66794;43.764;10.436;2023-05-16T04:10:06;100256.88;;;15.64;100.00
77626;BME280;66794;43.764;10.436;2023-05-16T04:12:52;100261.50;;;15.64;100.00
77626;BME280;66794;43.764;10.436;2023-05-16T04:15:37;100279.81;;;15.57;100.00
77626;BME280;66794;43.764;10.436;2023-05-16T04:18:23;100274.59;;;15.48;100.00
77626;BME280;66794;43.764;10.436;2023-05-16T04:21:09;100274.94;;;15.65;100.00
77626;BME280;66794;43.764;10.436;2023-05-16T04:23:59;100272.78;;;15.74;100.00
77626;BME280;66794;43.764;10.436;2023-05-16T04:26:44;100278.94;;;15.63;100.00
77626;BME280;66794;43.764;10.436;2023-05-16T04:29:30;100270.84;;;15.49;100.00
77626;BME280;66794;43.764;10.436;2023-05-16T04:32:16;100257.78;;;15.51;100.00
77626;BME280;66794;43.764;10.436;2023-05-16T04:35:02;100271.69;;;15.43;100.00
77626;BME280;66794;43.764;10.436;2023-05-16T04:37:48;100272.09;;;15.47;100.00
77626;BME280;66794;43.764;10.436;2023-05-16T04:40:34;100282.09;;;15.28;100.00
77626;BME280;66794;43.764;10.436;2023-05-16T04:43:19;100288.88;;;15.12;100.00
77626;BME280;66794;43.764;10.436;2023-05-16T04:46:05;100291.09;;;14.84;100.00
77626;BME280;66794;43.764;10.436;2023-05-16T04:48:52;100287.25;;;14.98;100.00
77626;BME280;66794;43.764;10.436;2023-05-16T04:51:37;100293.78;;;14.97;100.00
77626;BME280;66794;43.764;10.436;2023-05-16T04:54:23;100287.34;;;14.85;100.00
77626;BME280;66794;43.764;10.436;2023-05-16T04:57:09;100283.56;;;14.79;100.00
77626;BME280;66794;43.764;10.436;2023-05-16T04:59:54;100262.84;;;14.65;100.00
77626;BME280;66794;43.764;10.436;2023-05-16T05:02:40;100263.75;;;14.52;100.00
77626;BME280;66794;43.764;10.436;2023-05-16T05:05:26;100265.94;;;14.82;100.00
77626;BME280;66794;43.764;10.436;2023-05-16T05:08:11;100269.13;;;14.72;100.00
77626;BME280;66794;43.764;10.436;2023-05-16T05:10:57;100264.66;;;14.91;100.00
77626;BME280;66794;43.764;10.436;2023-05-16T05:13:42;100254.31;;;14.99;100.00
77626;BME280;66794;43.764;10.436;2023-05-16T05:16:28;100250.19;;;14.90;100.00
77626;BME280;66794;43.764;10.436;2023-05-16T05:19:14;100236.56;;;14.84;100.00
77626;BME280;66794;43.764;10.436;2023-05-16T05:21:59;100251.63;;;14.93;100.00
77626;BME280;66794;43.764;10.436;2023-05-16T05:24:45;100255.16;;;15.00;100.00
77626;BME280;66794;43.764;10.436;2023-05-16T05:27:31;100259.59;;;14.94;100.00
77626;BME280;66794;43.764;10.436;2023-05-16T05:30:16;100258.13;;;14.92;100.00
77626;BME280;66794;43.764;10.436;2023-05-16T05:33:02;100260.66;;;14.93;100.00
77626;BME280;66794;43.764;10.436;2023-05-16T05:35:47;100263.63;;;14.85;100.00
77626;BME280;66794;43.764;10.436;2023-05-16T05:38:33;100255.09;;;14.62;100.00
77626;BME280;66794;43.764;10.436;2023-05-16T05:41:19;100256.31;;;14.79;100.00
77626;BME280;66794;43.764;10.436;2023-05-16T05:44:06;100264.03;;;14.82;100.00
77626;BME280;66794;43.764;10.436;2023-05-16T05:46:52;100255.94;;;14.69;100.00
77626;BME280;66794;43.764;10.436;2023-05-16T05:49:37;100248.81;;;14.68;100.00
77626;BME280;66794;43.764;10.436;2023-05-16T05:52:23;100237.72;;;14.63;100.00
77626;BME280;66794;43.764;10.436;2023-05-16T05:55:09;100239.22;;;14.39;100.00
77626;BME280;66794;43.764;10.436;2023-05-16T05:57:54;100235.66;;;14.38;100.00
77626;BME280;66794;43.764;10.436;2023-05-16T06:00:40;100225.84;;;14.31;100.00
77626;BME280;66794;43.764;10.436;2023-05-16T06:03:26;100221.66;;;14.28;100.00
77626;BME280;66794;43.764;10.436;2023-05-16T06:06:11;100223.31;;;14.36;100.00
77626;BME280;66794;43.764;10.436;2023-05-16T06:08:59;100224.09;;;14.63;100.00
77626;BME280;66794;43.764;10.436;2023-05-16T06:11:44;100224.44;;;14.73;100.00
77626;BME280;66794;43.764;10.436;2023-05-16T06:14:30;100228.56;;;14.89;100.00
77626;BME280;66794;43.764;10.436;2023-05-16T06:17:16;100223.72;;;14.97;100.00
77626;BME280;66794;43.764;10.436;2023-05-16T06:20:02;100223.94;;;14.89;100.00
77626;BME280;66794;43.764;10.436;2023-05-16T06:22:47;100214.94;;;14.95;100.00
77626;BME280;66794;43.764;10.436;2023-05-16T06:25:33;100208.84;;;14.93;100.00
77626;BME280;66794;43.764;10.436;2023-05-16T06:28:19;100198.84;;;15.19;100.00
77626;BME280;66794;43.764;10.436;2023-05-16T06:31:04;100192.78;;;15.10;100.00
77626;BME280;66794;43.764;10.436;2023-05-16T06:33:50;100191.22;;;15.27;100.00
77626;BME280;66794;43.764;10.436;2023-05-16T06:36:35;100181.34;;;15.33;100.00
77626;BME280;66794;43.764;10.436;2023-05-16T06:39:21;100185.72;;;15.34;100.00
77626;BME280;66794;43.764;10.436;2023-05-16T06:42:07;100182.16;;;15.59;100.00
77626;BME280;66794;43.764;10.436;2023-05-16T06:44:52;100195.56;;;15.67;100.00
77626;BME280;66794;43.764;10.436;2023-05-16T06:47:38;100194.78;;;16.03;100.00
77626;BME280;66794;43.764;10.436;2023-05-16T06:50:24;100198.84;;;16.19;100.00
77626;BME280;66794;43.764;10.436;2023-05-16T06:53:09;100197.75;;;15.83;100.00
77626;BME280;66794;43.764;10.436;2023-05-16T06:55:56;100187.97;;;15.94;100.00
77626;BME280;66794;43.764;10.436;2023-05-16T06:58:41;100197.09;;;16.24;100.00
77626;BME280;66794;43.764;10.436;2023-05-16T07:01:27;100203.69;;;16.35;100.00
77626;BME280;66794;43.764;10.436;2023-05-16T07:04:13;100200.06;;;16.41;100.00
77626;BME280;66794;43.764;10.436;2023-05-16T07:06:59;100194.94;;;16.63;100.00
77626;BME280;66794;43.764;10.436;2023-05-16T07:09:45;100196.41;;;16.66;100.00
77626;BME280;66794;43.764;10.436;2023-05-16T07:12:30;100188.75;;;17.04;100.00
77626;BME280;66794;43.764;10.436;2023-05-16T07:15:16;100187.19;;;16.97;100.00
77626;BME280;66794;43.764;10.436;2023-05-16T07:18:02;100172.06;;;17.24;100.00
77626;BME280;66794;43.764;10.436;2023-05-16T07:20:47;100178.56;;;17.23;100.00
77626;BME280;66794;43.764;10.436;2023-05-16T07:23:33;100175.94;;;17.70;100.00
77626;BME280;66794;43.764;10.436;2023-05-16T07:26:19;100168.56;;;17.82;100.00
77626;BME280;66794;43.764;10.436;2023-05-16T07:29:07;100177.13;;;18.33;100.00
77626;BME280;66794;43.764;10.436;2023-05-16T07:31:53;100173.88;;;18.36;100.00
77626;BME280;66794;43.764;10.436;2023-05-16T07:34:38;100175.91;;;18.40;100.00
77626;BME280;66794;43.764;10.436;2023-05-16T07:37:24;100169.91;;;18.55;100.00
77626;BME280;66794;43.764;10.436;2023-05-16T07:40:10;100170.84;;;18.61;100.00
77626;BME280;66794;43.764;10.436;2023-05-16T07:42:56;100172.19;;;18.47;100.00
77626;BME280;66794;43.764;10.436;2023-05-16T07:45:42;100170.56;;;18.34;100.00
77626;BME280;66794;43.764;10.436;2023-05-16T07:48:28;100184.75;;;18.19;100.00
77626;BME280;66794;43.764;10.436;2023-05-16T07:51:13;100181.66;;;18.16;100.00
77626;BME280;66794;43.764;10.436;2023-05-16T07:53:59;100176.19;;;18.04;100.00
77626;BME280;66794;43.764;10.436;2023-05-16T07:56:45;100178.81;;;17.99;100.00
77626;BME280;66794;43.764;10.436;2023-05-16T07:59:31;100187.63;;;18.12;100.00
77626;BME280;66794;43.764;10.436;2023-05-16T08:02:17;100174.66;;;17.73;100.00
77626;BME280;66794;43.764;10.436;2023-05-16T08:05:03;100180.72;;;17.75;100.00
77626;BME280;66794;43.764;10.436;2023-05-16T08:07:50;100185.78;;;17.48;100.00
77626;BME280;66794;43.764;10.436;2023-05-16T08:10:35;100180.56;;;17.46;100.00
77626;BME280;66794;43.764;10.436;2023-05-16T08:13:21;100180.06;;;17.38;100.00
77626;BME280;66794;43.764;10.436;2023-05-16T08:16:07;100174.00;;;17.47;100.00
77626;BME280;66794;43.764;10.436;2023-05-16T08:18:52;100172.47;;;17.51;100.00
77626;BME280;66794;43.764;10.436;2023-05-16T08:21:38;100170.44;;;17.70;100.00
77626;BME280;66794;43.764;10.436;2023-05-16T08:24:25;100174.97;;;17.65;100.00
77626;BME280;66794;43.764;10.436;2023-05-16T08:27:10;100178.91;;;17.69;100.00
77626;BME280;66794;43.764;10.436;2023-05-16T08:29:56;100165.56;;;17.60;100.00
77626;BME280;66794;43.764;10.436;2023-05-16T08:32:42;100154.59;;;17.49;100.00
77626;BME280;66794;43.764;10.436;2023-05-16T08:35:28;100153.94;;;17.23;100.00
77626;BME280;66794;43.764;10.436;2023-05-16T08:38:13;100154.31;;;17.27;100.00
77626;BME280;66794;43.764;10.436;2023-05-16T08:40:59;100159.53;;;17.82;100.00
77626;BME280;66794;43.764;10.436;2023-05-16T08:43:45;100170.69;;;17.69;100.00
77626;BME280;66794;43.764;10.436;2023-05-16T08:46:31;100161.53;;;17.51;100.00
77626;BME280;66794;43.764;10.436;2023-05-16T08:49:17;100168.16;;;17.44;100.00
77626;BME280;66794;43.764;10.436;2023-05-16T08:52:03;100179.13;;;17.55;100.00
77626;BME280;66794;43.764;10.436;2023-05-16T08:54:52;100170.44;;;17.58;100.00
77626;BME280;66794;43.764;10.436;2023-05-16T08:57:38;100185.59;;;17.19;100.00
77626;BME280;66794;43.764;10.436;2023-05-16T09:00:25;100196.69;;;17.24;100.00
77626;BME280;66794;43.764;10.436;2023-05-16T09:03:11;100191.34;;;17.29;100.00
77626;BME280;66794;43.764;10.436;2023-05-16T09:05:57;100202.09;;;17.54;100.00
77626;BME280;66794;43.764;10.436;2023-05-16T09:08:43;100204.38;;;17.69;100.00
77626;BME280;66794;43.764;10.436;2023-05-16T09:11:28;100199.44;;;17.78;100.00
77626;BME280;66794;43.764;10.436;2023-05-16T09:14:14;100212.44;;;17.94;100.00
77626;BME280;66794;43.764;10.436;2023-05-16T09:17:04;100206.72;;;17.96;100.00
77626;BME280;66794;43.764;10.436;2023-05-16T09:19:50;100208.50;;;17.90;100.00
77626;BME280;66794;43.764;10.436;2023-05-16T09:22:38;100214.66;;;17.74;100.00
77626;BME280;66794;43.764;10.436;2023-05-16T09:25:25;100216.94;;;18.00;100.00
77626;BME280;66794;43.764;10.436;2023-05-16T09:28:11;100215.84;;;18.25;100.00
77626;BME280;66794;43.764;10.436;2023-05-16T09:30:57;100223.44;;;18.58;100.00
77626;BME280;66794;43.764;10.436;2023-05-16T09:33:44;100211.88;;;18.68;100.00
77626;BME280;66794;43.764;10.436;2023-05-16T09:36:30;100203.50;;;18.74;100.00
77626;BME280;66794;43.764;10.436;2023-05-16T09:39:16;100201.84;;;18.73;100.00
77626;BME280;66794;43.764;10.436;2023-05-16T09:42:02;100201.56;;;18.86;100.00
77626;BME280;66794;43.764;10.436;2023-05-16T09:44:48;100197.16;;;19.14;100.00
77626;BME280;66794;43.764;10.436;2023-05-16T09:47:34;100196.13;;;19.32;100.00
77626;BME280;66794;43.764;10.436;2023-05-16T09:50:20;100198.25;;;19.30;100.00
77626;BME280;66794;43.764;10.436;2023-05-16T09:53:06;100186.31;;;19.36;100.00
77626;BME280;66794;43.764;10.436;2023-05-16T09:55:58;100191.00;;;19.24;100.00
77626;BME280;66794;43.764;10.436;2023-05-16T09:58:45;100173.28;;;19.14;100.00
77626;BME280;66794;43.764;10.436;2023-05-16T10:01:31;100178.19;;;19.12;100.00
77626;BME280;66794;43.764;10.436;2023-05-16T10:04:17;100186.69;;;18.82;100.00
77626;BME280;66794;43.764;10.436;2023-05-16T10:07:03;100187.81;;;18.98;100.00
77626;BME280;66794;43.764;10.436;2023-05-16T10:09:49;100186.50;;;19.17;100.00
77626;BME280;66794;43.764;10.436;2023-05-16T10:12:35;100189.72;;;19.43;100.00
77626;BME280;66794;43.764;10.436;2023-05-16T10:15:22;100191.38;;;19.44;100.00
77626;BME280;66794;43.764;10.436;2023-05-16T10:18:08;100201.25;;;19.74;100.00
77626;BME280;66794;43.764;10.436;2023-05-16T10:21:00;100200.88;;;20.04;100.00
77626;BME280;66794;43.764;10.436;2023-05-16T10:23:47;100196.41;;;19.98;100.00
77626;BME280;66794;43.764;10.436;2023-05-16T10:26:34;100189.66;;;19.88;100.00
77626;BME280;66794;43.764;10.436;2023-05-16T10:29:20;100185.53;;;20.25;100.00
77626;BME280;66794;43.764;10.436;2023-05-16T10:32:06;100181.63;;;20.42;100.00
77626;BME280;66794;43.764;10.436;2023-05-16T10:34:53;100133.63;;;20.11;100.00
77626;BME280;66794;43.764;10.436;2023-05-16T10:37:40;100171.94;;;20.57;100.00
77626;BME280;66794;43.764;10.436;2023-05-16T10:40:27;100165.63;;;20.56;100.00
77626;BME280;66794;43.764;10.436;2023-05-16T10:43:21;100162.88;;;21.05;100.00
77626;BME280;66794;43.764;10.436;2023-05-16T10:46:08;100158.78;;;20.86;100.00
77626;BME280;66794;43.764;10.436;2023-05-16T10:48:54;100149.56;;;20.97;100.00
77626;BME280;66794;43.764;10.436;2023-05-16T10:51:39;100150.22;;;20.82;100.00
77626;BME280;66794;43.764;10.436;2023-05-16T10:54:32;100138.25;;;20.93;100.00
77626;BME280;66794;43.764;10.436;2023-05-16T10:57:19;100137.63;;;20.64;100.00
77626;BME280;66794;43.764;10.436;2023-05-16T11:00:07;100133.28;;;20.68;100.00
77626;BME280;66794;43.764;10.436;2023-05-16T11:02:57;100129.31;;;20.59;100.00
77626;BME280;66794;43.764;10.436;2023-05-16T11:05:51;100139.94;;;20.72;100.00
77626;BME280;66794;43.764;10.436;2023-05-16T11:08:56;100132.00;;;21.03;100.00
77626;BME280;66794;43.764;10.436;2023-05-16T11:14:40;100126.97;;;21.54;100.00
77626;BME280;66794;43.764;10.436;2023-05-16T11:17:37;100124.41;;;21.85;95.48
77626;BME280;66794;43.764;10.436;2023-05-16T11:20:29;100129.41;;;20.91;96.42
77626;BME280;66794;43.764;10.436;2023-05-16T11:26:05;100146.31;;;20.51;90.32
77626;BME280;66794;43.764;10.436;2023-05-16T11:28:51;100152.91;;;20.50;99.30
77626;BME280;66794;43.764;10.436;2023-05-16T11:31:39;100150.81;;;20.84;97.90
77626;BME280;66794;43.764;10.436;2023-05-16T11:34:24;100152.63;;;21.00;97.80
77626;BME280;66794;43.764;10.436;2023-05-16T11:37:10;100151.25;;;20.76;96.84
77626;BME280;66794;43.764;10.436;2023-05-16T11:40:00;100140.00;;;21.05;94.62
77626;BME280;66794;43.764;10.436;2023-05-16T11:42:46;100147.50;;;20.87;90.13
77626;BME280;66794;43.764;10.436;2023-05-16T11:45:32;100149.97;;;20.84;97.60
77626;BME280;66794;43.764;10.436;2023-05-16T11:48:18;100147.22;;;21.11;100.00
77626;BME280;66794;43.764;10.436;2023-05-16T11:51:04;100156.88;;;21.13;93.05
77626;BME280;66794;43.764;10.436;2023-05-16T11:53:50;100154.78;;;20.98;95.49
77626;BME280;66794;43.764;10.436;2023-05-16T11:56:36;100158.72;;;21.30;100.00
77626;BME280;66794;43.764;10.436;2023-05-16T11:59:22;100156.97;;;21.50;100.00
77626;BME280;66794;43.764;10.436;2023-05-16T12:02:08;100151.97;;;21.85;94.37
77626;BME280;66794;43.764;10.436;2023-05-16T12:04:54;100152.84;;;21.90;91.48
77626;BME280;66794;43.764;10.436;2023-05-16T12:07:42;100142.19;;;22.04;88.44
77626;BME280;66794;43.764;10.436;2023-05-16T12:10:29;100147.91;;;22.35;85.21
77626;BME280;66794;43.764;10.436;2023-05-16T12:13:16;100140.16;;;21.89;81.68
77626;BME280;66794;43.764;10.436;2023-05-16T12:16:02;100145.47;;;22.01;84.69
77626;BME280;66794;43.764;10.436;2023-05-16T12:18:48;100149.84;;;21.55;78.79
77626;BME280;66794;43.764;10.436;2023-05-16T12:21:34;100154.25;;;21.93;79.50
77626;BME280;66794;43.764;10.436;2023-05-16T12:24:20;100157.69;;;21.73;84.27
77626;BME280;66794;43.764;10.436;2023-05-16T12:27:07;100171.66;;;21.61;93.26
77626;BME280;66794;43.764;10.436;2023-05-16T12:29:52;100166.56;;;21.43;90.49
77626;BME280;66794;43.764;10.436;2023-05-16T12:32:38;100182.00;;;21.44;86.71
77626;BME280;66794;43.764;10.436;2023-05-16T12:35:24;100177.75;;;21.09;95.10
77626;BME280;66794;43.764;10.436;2023-05-16T12:38:11;100170.91;;;20.85;100.00
77626;BME280;66794;43.764;10.436;2023-05-16T12:40:57;100173.94;;;20.61;100.00
77626;BME280;66794;43.764;10.436;2023-05-16T12:43:43;100184.44;;;20.26;100.00
77626;BME280;66794;43.764;10.436;2023-05-16T12:46:29;100180.50;;;20.21;100.00
77626;BME280;66794;43.764;10.436;2023-05-16T12:49:18;100185.63;;;20.13;100.00
77626;BME280;66794;43.764;10.436;2023-05-16T12:52:04;100195.31;;;19.82;100.00
77626;BME280;66794;43.764;10.436;2023-05-16T12:54:50;100203.72;;;19.58;100.00
77626;BME280;66794;43.764;10.436;2023-05-16T12:57:35;100213.59;;;19.42;100.00
77626;BME280;66794;43.764;10.436;2023-05-16T13:00:21;100215.66;;;19.35;100.00
77626;BME280;66794;43.764;10.436;2023-05-16T13:03:07;100222.78;;;19.20;100.00
77626;BME280;66794;43.764;10.436;2023-05-16T13:05:53;100234.69;;;18.97;100.00
77626;BME280;66794;43.764;10.436;2023-05-16T13:08:38;100235.97;;;19.06;100.00
77626;BME280;66794;43.764;10.436;2023-05-16T13:11:24;100236.00;;;18.94;100.00
77626;BME280;66794;43.764;10.436;2023-05-16T13:14:10;100237.09;;;18.93;100.00
77626;BME280;66794;43.764;10.436;2023-05-16T13:16:56;100241.50;;;18.94;100.00
77626;BME280;66794;43.764;10.436;2023-05-16T13:19:41;100235.13;;;18.77;100.00
77626;BME280;66794;43.764;10.436;2023-05-16T13:22:27;100241.06;;;18.74;100.00
77626;BME280;66794;43.764;10.436;2023-05-16T13:25:16;100241.31;;;18.60;100.00
77626;BME280;66794;43.764;10.436;2023-05-16T13:28:02;100238.03;;;18.35;100.00
77626;BME280;66794;43.764;10.436;2023-05-16T13:30:48;100241.00;;;18.33;100.00
77626;BME280;66794;43.764;10.436;2023-05-16T13:33:33;100246.34;;;18.05;100.00
77626;BME280;66794;43.764;10.436;2023-05-16T13:36:20;100244.22;;;18.07;100.00
77626;BME280;66794;43.764;10.436;2023-05-16T13:39:06;100246.25;;;18.00;100.00
77626;BME280;66794;43.764;10.436;2023-05-16T13:41:52;100245.63;;;17.86;100.00
77626;BME280;66794;43.764;10.436;2023-05-16T13:44:37;100244.69;;;17.80;100.00
77626;BME280;66794;43.764;10.436;2023-05-16T13:47:23;100252.19;;;17.73;100.00
77626;BME280;66794;43.764;10.436;2023-05-16T13:50:09;100253.97;;;17.91;100.00
77626;BME280;66794;43.764;10.436;2023-05-16T13:52:55;100252.19;;;17.97;100.00
77626;BME280;66794;43.764;10.436;2023-05-16T13:55:40;100246.72;;;17.97;100.00
77626;BME280;66794;43.764;10.436;2023-05-16T13:58:26;100252.66;;;17.94;100.00
77626;BME280;66794;43.764;10.436;2023-05-16T14:01:11;100262.19;;;17.91;100.00
77626;BME280;66794;43.764;10.436;2023-05-16T14:03:58;100267.09;;;17.89;100.00
77626;BME280;66794;43.764;10.436;2023-05-16T14:06:44;100250.28;;;17.85;100.00
77626;BME280;66794;43.764;10.436;2023-05-16T14:09:30;100258.00;;;17.77;100.00
77626;BME280;66794;43.764;10.436;2023-05-16T14:12:16;100261.81;;;17.87;100.00
77626;BME280;66794;43.764;10.436;2023-05-16T14:15:01;100270.56;;;17.66;100.00
77626;BME280;66794;43.764;10.436;2023-05-16T14:17:47;100263.84;;;17.80;100.00
77626;BME280;66794;43.764;10.436;2023-05-16T14:20:33;100272.19;;;17.55;100.00